HAZ608 VMMC-ZSHC
Flight info
| Callsign | HAZ608 |
|---|---|
| Flight time | 1h 32m |
| Altitude | 35000 |
| Route | NUDPI V601 DOTMI/K0895S1250 A470 UGAGO |
| Aircraft | A359/H-SDE2E3GHIJ3J4J5LM1ORWXY/LB1D1 |
Departure
| Time | 2026-04-24 05:56 |
|---|---|
| Airport | Macau International Airport (VMMC) |
Arrival
| Time | 2026-04-24 07:28 |
|---|---|
| Airport | Hangzhou Xiaoshan International Airport (ZSHC) |
| Time | Latitude | Longitude | Altitude | Speed | Heading |
|---|---|---|---|---|---|
| 2026-04-24 05:35 | 22.15644 | 113.57479 | 34 ft | 0 kts | 327° |
| 2026-04-24 05:42 | 22.15640 | 113.57482 | 35 ft | 3 kts | 327° |
| 2026-04-24 05:42 | 22.15625 | 113.57492 | 35 ft | 4 kts | 325° |
| 2026-04-24 05:43 | 22.15618 | 113.57498 | 34 ft | 4 kts | 325° |
| 2026-04-24 05:43 | 22.15598 | 113.57513 | 35 ft | 4 kts | 336° |
| 2026-04-24 05:43 | 22.15577 | 113.57515 | 35 ft | 4 kts | 44° |
| 2026-04-24 05:44 | 22.15563 | 113.57491 | 35 ft | 4 kts | 65° |
| 2026-04-24 05:44 | 22.15555 | 113.57474 | 35 ft | 0 kts | 59° |
| 2026-04-24 05:46 | 22.15585 | 113.57519 | 35 ft | 13 kts | 52° |
| 2026-04-24 05:46 | 22.15599 | 113.57621 | 35 ft | 14 kts | 119° |
| 2026-04-24 05:46 | 22.15542 | 113.57720 | 35 ft | 18 kts | 123° |
| 2026-04-24 05:47 | 22.15467 | 113.57843 | 35 ft | 20 kts | 123° |
| 2026-04-24 05:47 | 22.15387 | 113.57974 | 35 ft | 21 kts | 124° |
| 2026-04-24 05:47 | 22.15302 | 113.58107 | 35 ft | 22 kts | 125° |
| 2026-04-24 05:47 | 22.15217 | 113.58246 | 35 ft | 23 kts | 123° |
| 2026-04-24 05:48 | 22.15129 | 113.58389 | 35 ft | 23 kts | 123° |
| 2026-04-24 05:48 | 22.15037 | 113.58535 | 35 ft | 24 kts | 123° |
| 2026-04-24 05:48 | 22.14943 | 113.58687 | 35 ft | 25 kts | 123° |
| 2026-04-24 05:48 | 22.14845 | 113.58846 | 35 ft | 26 kts | 123° |
| 2026-04-24 05:49 | 22.14744 | 113.59008 | 35 ft | 25 kts | 128° |
| 2026-04-24 05:49 | 22.14590 | 113.59087 | 35 ft | 25 kts | 161° |
| 2026-04-24 05:49 | 22.14422 | 113.59149 | 35 ft | 26 kts | 161° |
| 2026-04-24 05:49 | 22.14248 | 113.59212 | 35 ft | 27 kts | 161° |
| 2026-04-24 05:50 | 22.14069 | 113.59279 | 35 ft | 28 kts | 161° |
| 2026-04-24 05:50 | 22.13890 | 113.59345 | 35 ft | 28 kts | 161° |
| 2026-04-24 05:50 | 22.13760 | 113.59393 | 35 ft | 29 kts | 161° |
| 2026-04-24 05:50 | 22.13568 | 113.59473 | 35 ft | 12 kts | 141° |
| 2026-04-24 05:51 | 22.13532 | 113.59520 | 33 ft | 13 kts | 121° |
| 2026-04-24 05:51 | 22.13497 | 113.59609 | 34 ft | 5 kts | 89° |
| 2026-04-24 05:51 | 22.13497 | 113.59610 | 34 ft | 0 kts | 88° |
| 2026-04-24 05:54 | 22.13533 | 113.59652 | 34 ft | 11 kts | 12° |
| 2026-04-24 05:55 | 22.13610 | 113.59634 | 35 ft | 13 kts | 341° |
| 2026-04-24 05:55 | 22.13843 | 113.59548 | 39 ft | 68 kts | 341° |
| 2026-04-24 05:55 | 22.14531 | 113.59295 | 35 ft | 138 kts | 341° |
| 2026-04-24 05:55 | 22.15545 | 113.58947 | 505 ft | 158 kts | 346° |
| 2026-04-24 05:56 | 22.16638 | 113.58869 | 1291 ft | 166 kts | 14° |
| 2026-04-24 05:56 | 22.17718 | 113.59522 | 1761 ft | 190 kts | 32° |
| 2026-04-24 05:56 | 22.18848 | 113.60279 | 2453 ft | 198 kts | 27° |
| 2026-04-24 05:56 | 22.20002 | 113.60912 | 3129 ft | 203 kts | 24° |
| 2026-04-24 05:57 | 22.21438 | 113.61589 | 3892 ft | 210 kts | 22° |
| 2026-04-24 05:57 | 22.22826 | 113.62186 | 4578 ft | 218 kts | 20° |
| 2026-04-24 05:57 | 22.24253 | 113.62773 | 5407 ft | 219 kts | 19° |
| 2026-04-24 05:57 | 22.25690 | 113.63350 | 6251 ft | 223 kts | 17° |
| 2026-04-24 05:58 | 22.27177 | 113.63938 | 6964 ft | 232 kts | 16° |
| 2026-04-24 05:58 | 22.28668 | 113.64738 | 7647 ft | 248 kts | 33° |
| 2026-04-24 05:58 | 22.30120 | 113.65914 | 8027 ft | 275 kts | 38° |
| 2026-04-24 05:58 | 22.31669 | 113.67275 | 8505 ft | 295 kts | 38° |
| 2026-04-24 05:59 | 22.33253 | 113.68729 | 9239 ft | 304 kts | 44° |
| 2026-04-24 05:59 | 22.34425 | 113.70638 | 10010 ft | 310 kts | 71° |
| 2026-04-24 05:59 | 22.34959 | 113.72899 | 10863 ft | 313 kts | 80° |
| 2026-04-24 05:59 | 22.35387 | 113.75231 | 11714 ft | 318 kts | 80° |
| 2026-04-24 06:00 | 22.35824 | 113.77591 | 12580 ft | 322 kts | 79° |
| 2026-04-24 06:00 | 22.36274 | 113.79971 | 13409 ft | 328 kts | 79° |
| 2026-04-24 06:00 | 22.36743 | 113.82450 | 13837 ft | 348 kts | 79° |
| 2026-04-24 06:00 | 22.37103 | 113.85082 | 14139 ft | 367 kts | 90° |
| 2026-04-24 06:01 | 22.36652 | 113.87839 | 14468 ft | 379 kts | 114° |
| 2026-04-24 06:01 | 22.35222 | 113.90244 | 14840 ft | 385 kts | 137° |
| 2026-04-24 06:01 | 22.33069 | 113.91926 | 15396 ft | 385 kts | 155° |
| 2026-04-24 06:01 | 22.30695 | 113.93235 | 15961 ft | 390 kts | 157° |
| 2026-04-24 06:02 | 22.28295 | 113.94584 | 16586 ft | 395 kts | 155° |
| 2026-04-24 06:02 | 22.25836 | 113.96036 | 17202 ft | 400 kts | 155° |
| 2026-04-24 06:02 | 22.23406 | 113.97585 | 17793 ft | 407 kts | 149° |
| 2026-04-24 06:02 | 22.21362 | 113.99705 | 18341 ft | 420 kts | 130° |
| 2026-04-24 06:03 | 22.19772 | 114.02382 | 18903 ft | 428 kts | 123° |
| 2026-04-24 06:03 | 22.18276 | 114.05159 | 19455 ft | 432 kts | 123° |
| 2026-04-24 06:03 | 22.16749 | 114.07979 | 19999 ft | 436 kts | 124° |
| 2026-04-24 06:03 | 22.15199 | 114.10814 | 20539 ft | 441 kts | 124° |
| 2026-04-24 06:04 | 22.13627 | 114.13672 | 21068 ft | 445 kts | 124° |
| 2026-04-24 06:04 | 22.12181 | 114.16645 | 21656 ft | 449 kts | 116° |
| 2026-04-24 06:04 | 22.11220 | 114.19837 | 22405 ft | 449 kts | 107° |
| 2026-04-24 06:04 | 22.10485 | 114.23126 | 22959 ft | 452 kts | 106° |
| 2026-04-24 06:05 | 22.09782 | 114.26453 | 23325 ft | 458 kts | 106° |
| 2026-04-24 06:05 | 22.09095 | 114.29797 | 23736 ft | 462 kts | 106° |
| 2026-04-24 06:05 | 22.08404 | 114.33206 | 24122 ft | 467 kts | 106° |
| 2026-04-24 06:05 | 22.07712 | 114.36653 | 24543 ft | 470 kts | 105° |
| 2026-04-24 06:06 | 22.07019 | 114.40114 | 24961 ft | 475 kts | 105° |
| 2026-04-24 06:06 | 22.06316 | 114.43627 | 25330 ft | 481 kts | 105° |
| 2026-04-24 06:06 | 22.05609 | 114.47163 | 25735 ft | 486 kts | 105° |
| 2026-04-24 06:06 | 22.04895 | 114.50734 | 26201 ft | 491 kts | 105° |
| 2026-04-24 06:07 | 22.04176 | 114.54324 | 26614 ft | 496 kts | 105° |
| 2026-04-24 06:07 | 22.03438 | 114.58004 | 27056 ft | 501 kts | 105° |
| 2026-04-24 06:07 | 22.02698 | 114.61695 | 27507 ft | 505 kts | 105° |
| 2026-04-24 06:07 | 22.01950 | 114.65417 | 27917 ft | 511 kts | 105° |
| 2026-04-24 06:08 | 22.01192 | 114.69188 | 28287 ft | 517 kts | 105° |
| 2026-04-24 06:08 | 22.00427 | 114.72984 | 28707 ft | 521 kts | 105° |
| 2026-04-24 06:08 | 21.99652 | 114.76829 | 29114 ft | 525 kts | 105° |
| 2026-04-24 06:08 | 21.98874 | 114.80684 | 29585 ft | 527 kts | 105° |
| 2026-04-24 06:09 | 21.98093 | 114.84552 | 30036 ft | 531 kts | 105° |
| 2026-04-24 06:09 | 21.97304 | 114.88449 | 30351 ft | 536 kts | 105° |
| 2026-04-24 06:09 | 21.96506 | 114.92386 | 30716 ft | 539 kts | 105° |
| 2026-04-24 06:09 | 21.95704 | 114.96344 | 31063 ft | 543 kts | 105° |
| 2026-04-24 06:10 | 21.94895 | 115.00332 | 31415 ft | 546 kts | 105° |
| 2026-04-24 06:10 | 21.94077 | 115.04352 | 31750 ft | 550 kts | 105° |
| 2026-04-24 06:10 | 21.93257 | 115.08373 | 32061 ft | 553 kts | 105° |
| 2026-04-24 06:11 | 21.91598 | 115.16498 | 32687 ft | 558 kts | 104° |
| 2026-04-24 06:11 | 21.90760 | 115.20596 | 32965 ft | 561 kts | 104° |
| 2026-04-24 06:11 | 21.89964 | 115.24654 | 33288 ft | 563 kts | 102° |
| 2026-04-24 06:11 | 21.89579 | 115.28853 | 33642 ft | 566 kts | 91° |
| 2026-04-24 06:12 | 21.89686 | 115.33085 | 34018 ft | 566 kts | 85° |
| 2026-04-24 06:12 | 21.90259 | 115.37276 | 34390 ft | 565 kts | 76° |
| 2026-04-24 06:12 | 21.91408 | 115.41276 | 34731 ft | 563 kts | 65° |
| 2026-04-24 06:12 | 21.93198 | 115.45036 | 34961 ft | 561 kts | 54° |
| 2026-04-24 06:13 | 21.95554 | 115.48345 | 35018 ft | 553 kts | 43° |
| 2026-04-24 06:13 | 22.01175 | 115.53904 | 35004 ft | 546 kts | 34° |
| 2026-04-24 06:14 | 22.07150 | 115.58990 | 35015 ft | 548 kts | 32° |
| 2026-04-24 06:14 | 22.13120 | 115.64124 | 35006 ft | 550 kts | 33° |
| 2026-04-24 06:15 | 22.19054 | 115.69375 | 35003 ft | 551 kts | 34° |
| 2026-04-24 06:15 | 22.24945 | 115.74650 | 35004 ft | 550 kts | 34° |
| 2026-04-24 06:16 | 22.30822 | 115.79922 | 35003 ft | 550 kts | 34° |
| 2026-04-24 06:16 | 22.36704 | 115.85198 | 35006 ft | 550 kts | 34° |
| 2026-04-24 06:17 | 22.42592 | 115.90482 | 35007 ft | 551 kts | 34° |
| 2026-04-24 06:17 | 22.48480 | 115.95774 | 35010 ft | 551 kts | 34° |
| 2026-04-24 06:18 | 22.54393 | 116.01095 | 34986 ft | 552 kts | 34° |
| 2026-04-24 06:18 | 22.60295 | 116.06411 | 34987 ft | 552 kts | 34° |
| 2026-04-24 06:19 | 22.66188 | 116.11725 | 34996 ft | 552 kts | 34° |
| 2026-04-24 06:19 | 22.72085 | 116.17049 | 34995 ft | 552 kts | 34° |
| 2026-04-24 06:20 | 22.78106 | 116.22204 | 34990 ft | 551 kts | 31° |
| 2026-04-24 06:20 | 22.84242 | 116.27193 | 34987 ft | 552 kts | 31° |
| 2026-04-24 06:21 | 22.90375 | 116.32210 | 34987 ft | 553 kts | 31° |
| 2026-04-24 06:21 | 22.96503 | 116.37285 | 34988 ft | 554 kts | 31° |
| 2026-04-24 06:22 | 23.02636 | 116.42351 | 34984 ft | 555 kts | 31° |
| 2026-04-24 06:22 | 23.08747 | 116.47395 | 34986 ft | 555 kts | 31° |
| 2026-04-24 06:23 | 23.14936 | 116.52515 | 34992 ft | 556 kts | 31° |
| 2026-04-24 06:23 | 23.21055 | 116.57581 | 34986 ft | 557 kts | 31° |
| 2026-04-24 06:24 | 23.27218 | 116.62694 | 34987 ft | 558 kts | 31° |
| 2026-04-24 06:24 | 23.33384 | 116.67818 | 34986 ft | 558 kts | 31° |
| 2026-04-24 06:25 | 23.39559 | 116.72955 | 34994 ft | 558 kts | 31° |
| 2026-04-24 06:25 | 23.45501 | 116.78437 | 34986 ft | 565 kts | 39° |
| 2026-04-24 06:26 | 23.51039 | 116.84556 | 34996 ft | 567 kts | 41° |
| 2026-04-24 06:26 | 23.56489 | 116.90769 | 34985 ft | 568 kts | 41° |
| 2026-04-24 06:27 | 23.61939 | 116.97000 | 34984 ft | 568 kts | 41° |
| 2026-04-24 06:27 | 23.67395 | 117.03220 | 34986 ft | 568 kts | 41° |
| 2026-04-24 06:28 | 23.72867 | 117.09454 | 34986 ft | 568 kts | 41° |
| 2026-04-24 06:28 | 23.78344 | 117.15658 | 34987 ft | 567 kts | 39° |
| 2026-04-24 06:29 | 23.84146 | 117.21383 | 35102 ft | 562 kts | 34° |
| 2026-04-24 06:29 | 23.90052 | 117.26896 | 34995 ft | 565 kts | 35° |
| 2026-04-24 06:30 | 23.96029 | 117.32641 | 34934 ft | 565 kts | 36° |
| 2026-04-24 06:30 | 24.01877 | 117.38376 | 34996 ft | 564 kts | 36° |
| 2026-04-24 06:31 | 24.07731 | 117.44144 | 34984 ft | 569 kts | 37° |
| 2026-04-24 06:31 | 24.13556 | 117.50004 | 34998 ft | 574 kts | 40° |
| 2026-04-24 06:32 | 24.19058 | 117.56373 | 34987 ft | 574 kts | 42° |
| 2026-04-24 06:32 | 24.24443 | 117.62804 | 34986 ft | 574 kts | 43° |
| 2026-04-24 06:33 | 24.29826 | 117.69299 | 35000 ft | 574 kts | 43° |
| 2026-04-24 06:33 | 24.35169 | 117.75743 | 34986 ft | 574 kts | 42° |
| 2026-04-24 06:34 | 24.40554 | 117.82223 | 34985 ft | 573 kts | 43° |
| 2026-04-24 06:34 | 24.45014 | 117.87599 | 34988 ft | 574 kts | 43° |
| 2026-04-24 06:35 | 24.51203 | 117.95071 | 34996 ft | 575 kts | 43° |
| 2026-04-24 06:35 | 24.56589 | 118.01581 | 34997 ft | 575 kts | 43° |
| 2026-04-24 06:36 | 24.62064 | 118.07975 | 34986 ft | 574 kts | 40° |
| 2026-04-24 06:36 | 24.67661 | 118.14239 | 34995 ft | 574 kts | 40° |
| 2026-04-24 06:37 | 24.73251 | 118.20514 | 34986 ft | 576 kts | 40° |
| 2026-04-24 06:37 | 24.78831 | 118.26858 | 34999 ft | 577 kts | 41° |
| 2026-04-24 06:38 | 24.83504 | 118.32208 | 34994 ft | 579 kts | 41° |
| 2026-04-24 06:38 | 24.89027 | 118.38524 | 35003 ft | 580 kts | 41° |
| 2026-04-24 06:39 | 24.94659 | 118.44966 | 34994 ft | 581 kts | 41° |
| 2026-04-24 06:39 | 25.00257 | 118.51386 | 34999 ft | 582 kts | 41° |
| 2026-04-24 06:40 | 25.05862 | 118.57827 | 35004 ft | 582 kts | 41° |
| 2026-04-24 06:40 | 25.11468 | 118.64280 | 35006 ft | 583 kts | 42° |
| 2026-04-24 06:41 | 25.16918 | 118.70846 | 35007 ft | 578 kts | 43° |
| 2026-04-24 06:41 | 25.22341 | 118.77445 | 35012 ft | 582 kts | 43° |
| 2026-04-24 06:42 | 25.27799 | 118.84089 | 35018 ft | 585 kts | 43° |
| 2026-04-24 06:42 | 25.33289 | 118.90750 | 35013 ft | 586 kts | 43° |
| 2026-04-24 06:43 | 25.38813 | 118.97376 | 35019 ft | 586 kts | 42° |
| 2026-04-24 06:43 | 25.44443 | 119.03906 | 35029 ft | 586 kts | 41° |
| 2026-04-24 06:44 | 25.50076 | 119.10419 | 35031 ft | 586 kts | 41° |
| 2026-04-24 06:44 | 25.55683 | 119.16968 | 35037 ft | 587 kts | 42° |
| 2026-04-24 06:45 | 25.61276 | 119.23540 | 35037 ft | 588 kts | 42° |
| 2026-04-24 06:45 | 25.66885 | 119.30118 | 35040 ft | 587 kts | 42° |
| 2026-04-24 06:46 | 25.72720 | 119.36398 | 35048 ft | 578 kts | 30° |
| 2026-04-24 06:46 | 25.76094 | 119.38745 | 35047 ft | 566 kts | 18° |
| 2026-04-24 06:46 | 25.79680 | 119.40387 | 35047 ft | 555 kts | 11° |
| 2026-04-24 06:47 | 25.86951 | 119.43010 | 35043 ft | 552 kts | 7° |
| 2026-04-24 06:47 | 25.94320 | 119.45457 | 35041 ft | 553 kts | 8° |
| 2026-04-24 06:48 | 26.01697 | 119.47921 | 35047 ft | 554 kts | 7° |
| 2026-04-24 06:48 | 26.09073 | 119.50410 | 35042 ft | 555 kts | 7° |
| 2026-04-24 06:49 | 26.16473 | 119.52925 | 35043 ft | 556 kts | 7° |
| 2026-04-24 06:49 | 26.23891 | 119.54698 | 35047 ft | 533 kts | 352° |
| 2026-04-24 06:50 | 26.31247 | 119.55013 | 35045 ft | 527 kts | 349° |
| 2026-04-24 06:50 | 26.38576 | 119.55085 | 35043 ft | 526 kts | 349° |
| 2026-04-24 06:51 | 26.45905 | 119.55119 | 35046 ft | 528 kts | 349° |
| 2026-04-24 06:51 | 26.53243 | 119.55139 | 35047 ft | 527 kts | 349° |
| 2026-04-24 06:52 | 26.60572 | 119.55169 | 35043 ft | 526 kts | 348° |
| 2026-04-24 06:52 | 26.67902 | 119.55209 | 35044 ft | 527 kts | 349° |
| 2026-04-24 06:53 | 26.75240 | 119.55257 | 35046 ft | 527 kts | 349° |
| 2026-04-24 06:53 | 26.82568 | 119.55307 | 35046 ft | 527 kts | 348° |
| 2026-04-24 06:54 | 26.89892 | 119.55358 | 35045 ft | 525 kts | 349° |
| 2026-04-24 06:54 | 26.97187 | 119.55405 | 35050 ft | 524 kts | 348° |
| 2026-04-24 06:55 | 27.04491 | 119.55443 | 35046 ft | 526 kts | 348° |
| 2026-04-24 06:55 | 27.11796 | 119.55499 | 35049 ft | 524 kts | 348° |
| 2026-04-24 06:56 | 27.19090 | 119.55548 | 35040 ft | 524 kts | 348° |
| 2026-04-24 06:56 | 27.26389 | 119.55595 | 35049 ft | 524 kts | 348° |
| 2026-04-24 06:57 | 27.33670 | 119.55626 | 35046 ft | 522 kts | 348° |
| 2026-04-24 06:57 | 27.40881 | 119.55629 | 35048 ft | 522 kts | 347° |
| 2026-04-24 06:58 | 27.48195 | 119.55637 | 35048 ft | 523 kts | 348° |
| 2026-04-24 06:58 | 27.55427 | 119.55698 | 35048 ft | 523 kts | 348° |
| 2026-04-24 06:59 | 27.62703 | 119.55767 | 35042 ft | 523 kts | 348° |
| 2026-04-24 06:59 | 27.69989 | 119.55828 | 35039 ft | 523 kts | 348° |
| 2026-04-24 07:00 | 27.77272 | 119.55889 | 35060 ft | 523 kts | 348° |
| 2026-04-24 07:00 | 27.84521 | 119.55949 | 35044 ft | 521 kts | 348° |
| 2026-04-24 07:01 | 27.91791 | 119.56011 | 35052 ft | 522 kts | 348° |
| 2026-04-24 07:01 | 27.99060 | 119.56077 | 35055 ft | 522 kts | 347° |
| 2026-04-24 07:02 | 28.06305 | 119.56142 | 35057 ft | 520 kts | 347° |
| 2026-04-24 07:02 | 28.13533 | 119.56245 | 35057 ft | 523 kts | 349° |
| 2026-04-24 07:03 | 28.20839 | 119.56646 | 35056 ft | 526 kts | 351° |
| 2026-04-24 07:03 | 28.28148 | 119.57125 | 35051 ft | 527 kts | 351° |
| 2026-04-24 07:04 | 28.35464 | 119.57564 | 35060 ft | 527 kts | 350° |
| 2026-04-24 07:04 | 28.42798 | 119.57976 | 35064 ft | 528 kts | 350° |
| 2026-04-24 07:05 | 28.50125 | 119.58395 | 35058 ft | 528 kts | 351° |
| 2026-04-24 07:05 | 28.57395 | 119.58851 | 35068 ft | 528 kts | 351° |
| 2026-04-24 07:06 | 28.64825 | 119.59312 | 35068 ft | 530 kts | 351° |
| 2026-04-24 07:06 | 28.72136 | 119.59764 | 35055 ft | 529 kts | 351° |
| 2026-04-24 07:06 | 28.75829 | 119.59999 | 34542 ft | 523 kts | 351° |
| 2026-04-24 07:07 | 28.79485 | 119.60227 | 33481 ft | 527 kts | 351° |
| 2026-04-24 07:07 | 28.83165 | 119.60450 | 32501 ft | 531 kts | 352° |
| 2026-04-24 07:07 | 28.90524 | 119.60904 | 30444 ft | 535 kts | 353° |
| 2026-04-24 07:08 | 28.94292 | 119.61135 | 29430 ft | 536 kts | 354° |
| 2026-04-24 07:08 | 28.97957 | 119.61357 | 28481 ft | 527 kts | 354° |
| 2026-04-24 07:08 | 29.01574 | 119.61591 | 27228 ft | 515 kts | 355° |
| 2026-04-24 07:08 | 29.05076 | 119.61827 | 26529 ft | 492 kts | 355° |
| 2026-04-24 07:09 | 29.08425 | 119.62056 | 25888 ft | 473 kts | 355° |
| 2026-04-24 07:09 | 29.11681 | 119.62272 | 25232 ft | 466 kts | 355° |
| 2026-04-24 07:09 | 29.14892 | 119.62466 | 24576 ft | 461 kts | 355° |
| 2026-04-24 07:09 | 29.18078 | 119.62649 | 23952 ft | 456 kts | 355° |
| 2026-04-24 07:10 | 29.21226 | 119.62828 | 23342 ft | 449 kts | 355° |
| 2026-04-24 07:10 | 29.24327 | 119.63010 | 22721 ft | 445 kts | 355° |
| 2026-04-24 07:10 | 29.27416 | 119.63192 | 22100 ft | 444 kts | 355° |
| 2026-04-24 07:10 | 29.30481 | 119.63375 | 21477 ft | 440 kts | 356° |
| 2026-04-24 07:11 | 29.33520 | 119.63558 | 20857 ft | 434 kts | 356° |
| 2026-04-24 07:11 | 29.36520 | 119.63741 | 20239 ft | 429 kts | 356° |
| 2026-04-24 07:11 | 29.39480 | 119.63923 | 19615 ft | 424 kts | 356° |
| 2026-04-24 07:11 | 29.42414 | 119.64105 | 18989 ft | 419 kts | 356° |
| 2026-04-24 07:12 | 29.45307 | 119.64287 | 18342 ft | 414 kts | 356° |
| 2026-04-24 07:12 | 29.48134 | 119.64424 | 17725 ft | 405 kts | 355° |
| 2026-04-24 07:12 | 29.50929 | 119.64576 | 17107 ft | 401 kts | 356° |
| 2026-04-24 07:12 | 29.53701 | 119.64751 | 16494 ft | 396 kts | 357° |
| 2026-04-24 07:13 | 29.56433 | 119.64921 | 15848 ft | 392 kts | 356° |
| 2026-04-24 07:13 | 29.59163 | 119.65001 | 15195 ft | 388 kts | 356° |
| 2026-04-24 07:13 | 29.61842 | 119.65055 | 14552 ft | 385 kts | 356° |
| 2026-04-24 07:13 | 29.64514 | 119.65131 | 13900 ft | 382 kts | 358° |
| 2026-04-24 07:14 | 29.67157 | 119.65278 | 13248 ft | 379 kts | 359° |
| 2026-04-24 07:14 | 29.69776 | 119.65436 | 12577 ft | 375 kts | 360° |
| 2026-04-24 07:14 | 29.72363 | 119.65595 | 11932 ft | 371 kts | 1° |
| 2026-04-24 07:14 | 29.74888 | 119.66116 | 11272 ft | 371 kts | 17° |
| 2026-04-24 07:15 | 29.77103 | 119.67537 | 11089 ft | 358 kts | 37° |
| 2026-04-24 07:15 | 29.78767 | 119.69576 | 10974 ft | 343 kts | 51° |
| 2026-04-24 07:15 | 29.80124 | 119.71743 | 10869 ft | 326 kts | 53° |
| 2026-04-24 07:15 | 29.81356 | 119.73771 | 10738 ft | 312 kts | 53° |
| 2026-04-24 07:16 | 29.82574 | 119.75770 | 10602 ft | 299 kts | 53° |
| 2026-04-24 07:16 | 29.83750 | 119.77694 | 10466 ft | 286 kts | 53° |
| 2026-04-24 07:16 | 29.84865 | 119.79516 | 10336 ft | 277 kts | 53° |
| 2026-04-24 07:16 | 29.85985 | 119.81343 | 9994 ft | 275 kts | 53° |
| 2026-04-24 07:17 | 29.87102 | 119.83162 | 9668 ft | 285 kts | 53° |
| 2026-04-24 07:17 | 29.88263 | 119.85053 | 9549 ft | 290 kts | 53° |
| 2026-04-24 07:17 | 29.89426 | 119.86946 | 9209 ft | 289 kts | 54° |
| 2026-04-24 07:17 | 29.90472 | 119.88919 | 8770 ft | 288 kts | 61° |
| 2026-04-24 07:18 | 29.91376 | 119.90922 | 8448 ft | 283 kts | 62° |
| 2026-04-24 07:18 | 29.92269 | 119.92944 | 8180 ft | 283 kts | 62° |
| 2026-04-24 07:18 | 29.93166 | 119.94956 | 7919 ft | 283 kts | 62° |
| 2026-04-24 07:18 | 29.94055 | 119.96947 | 7655 ft | 280 kts | 62° |
| 2026-04-24 07:19 | 29.94958 | 119.98947 | 7393 ft | 279 kts | 62° |
| 2026-04-24 07:19 | 29.95847 | 120.00915 | 7214 ft | 271 kts | 62° |
| 2026-04-24 07:19 | 29.96695 | 120.02799 | 7100 ft | 258 kts | 61° |
| 2026-04-24 07:19 | 29.97501 | 120.04592 | 6989 ft | 246 kts | 61° |
| 2026-04-24 07:20 | 29.98273 | 120.06310 | 6883 ft | 236 kts | 61° |
| 2026-04-24 07:20 | 29.99015 | 120.07962 | 6701 ft | 229 kts | 61° |
| 2026-04-24 07:20 | 29.99748 | 120.09592 | 6526 ft | 229 kts | 61° |
| 2026-04-24 07:20 | 30.00483 | 120.11222 | 6321 ft | 228 kts | 61° |
| 2026-04-24 07:21 | 30.01212 | 120.12847 | 6128 ft | 228 kts | 62° |
| 2026-04-24 07:21 | 30.01938 | 120.14466 | 5937 ft | 227 kts | 61° |
| 2026-04-24 07:21 | 30.02665 | 120.16083 | 5737 ft | 225 kts | 61° |
| 2026-04-24 07:21 | 30.03575 | 120.17528 | 5550 ft | 223 kts | 41° |
| 2026-04-24 07:22 | 30.04941 | 120.18324 | 5365 ft | 222 kts | 10° |
| 2026-04-24 07:22 | 30.06465 | 120.18188 | 5188 ft | 222 kts | 341° |
| 2026-04-24 07:22 | 30.07868 | 120.17445 | 4989 ft | 223 kts | 333° |
| 2026-04-24 07:22 | 30.09225 | 120.16614 | 4860 ft | 216 kts | 333° |
| 2026-04-24 07:23 | 30.10538 | 120.15879 | 4759 ft | 204 kts | 342° |
| 2026-04-24 07:23 | 30.11944 | 120.15928 | 4721 ft | 208 kts | 24° |
| 2026-04-24 07:23 | 30.12739 | 120.16537 | 4683 ft | 208 kts | 41° |
| 2026-04-24 07:23 | 30.13875 | 120.18356 | 4400 ft | 210 kts | 62° |
| 2026-04-24 07:24 | 30.14534 | 120.19876 | 4080 ft | 212 kts | 62° |
| 2026-04-24 07:24 | 30.15213 | 120.21405 | 3737 ft | 215 kts | 61° |
| 2026-04-24 07:24 | 30.15900 | 120.22940 | 3410 ft | 215 kts | 62° |
| 2026-04-24 07:24 | 30.16580 | 120.24481 | 3115 ft | 217 kts | 62° |
| 2026-04-24 07:25 | 30.17267 | 120.26027 | 2823 ft | 216 kts | 62° |
| 2026-04-24 07:25 | 30.17712 | 120.27034 | 2638 ft | 216 kts | 62° |
| 2026-04-24 07:25 | 30.18622 | 120.29088 | 2258 ft | 216 kts | 62° |
| 2026-04-24 07:25 | 30.19082 | 120.30127 | 2059 ft | 215 kts | 62° |
| 2026-04-24 07:26 | 30.19979 | 120.32155 | 1689 ft | 212 kts | 62° |
| 2026-04-24 07:26 | 30.20428 | 120.33171 | 1488 ft | 211 kts | 62° |
| 2026-04-24 07:26 | 30.21088 | 120.34667 | 1218 ft | 205 kts | 62° |
| 2026-04-24 07:26 | 30.21911 | 120.36522 | 872 ft | 187 kts | 61° |
| 2026-04-24 07:27 | 30.22480 | 120.37809 | 668 ft | 172 kts | 62° |
| 2026-04-24 07:27 | 30.22840 | 120.38625 | 508 ft | 164 kts | 62° |
| 2026-04-24 07:27 | 30.23499 | 120.40107 | 229 ft | 149 kts | 62° |
| 2026-04-24 07:27 | 30.23804 | 120.40794 | 88 ft | 143 kts | 62° |
| 2026-04-24 07:28 | 30.24220 | 120.41736 | 39 ft | 127 kts | 62° |
| 2026-04-24 07:28 | 30.24532 | 120.42427 | 36 ft | 74 kts | 63° |
| 2026-04-24 07:28 | 30.24688 | 120.42791 | 36 ft | 31 kts | 68° |
| 2026-04-24 07:28 | 30.24722 | 120.42989 | 39 ft | 25 kts | 85° |
| 2026-04-24 07:29 | 30.24722 | 120.43195 | 39 ft | 19 kts | 94° |
| 2026-04-24 07:29 | 30.24666 | 120.43264 | 38 ft | 13 kts | 150° |
| 2026-04-24 07:29 | 30.24593 | 120.43231 | 38 ft | 13 kts | 232° |
| 2026-04-24 07:29 | 30.24542 | 120.43122 | 38 ft | 19 kts | 243° |
| 2026-04-24 07:30 | 30.24477 | 120.42976 | 38 ft | 22 kts | 243° |
| 2026-04-24 07:30 | 30.24403 | 120.42806 | 38 ft | 25 kts | 243° |
| 2026-04-24 07:30 | 30.24321 | 120.42618 | 38 ft | 27 kts | 243° |
| 2026-04-24 07:30 | 30.24235 | 120.42423 | 38 ft | 25 kts | 242° |
| 2026-04-24 07:31 | 30.24152 | 120.42238 | 37 ft | 26 kts | 243° |
| 2026-04-24 07:31 | 30.24093 | 120.42172 | 38 ft | 11 kts | 182° |
| 2026-04-24 07:31 | 30.24011 | 120.42135 | 38 ft | 14 kts | 235° |
| 2026-04-24 07:31 | 30.23953 | 120.42120 | 38 ft | 11 kts | 166° |
| 2026-04-24 07:32 | 30.23866 | 120.42166 | 38 ft | 16 kts | 153° |
| 2026-04-24 07:32 | 30.23815 | 120.42191 | 38 ft | 5 kts | 174° |
| 2026-04-24 07:32 | 30.23782 | 120.42169 | 38 ft | 7 kts | 227° |
| 2026-04-24 07:32 | 30.23766 | 120.42139 | 38 ft | 2 kts | 242° |
| 2026-04-24 07:33 | 30.23757 | 120.42121 | 38 ft | 3 kts | 242° |
| 2026-04-24 07:33 | 30.23755 | 120.42116 | 38 ft | 0 kts | 242° |